Flugplatz Siegerland

Bericht für EDGS

vom 17.08. um 06:20 UTC

Wind 9 kt aus 320°

Sichtweite 10 km oder mehr

gute Sicht, keine Wolken < 5000 ft, keine CB, keine Wettererscheinungen (CAVOK)

Temperatur 17.0°C

Taupunkt 13.0°C

Luftfeuchtigkeit 77%

Luftdruck 1017 hPa

EDGS 170620Z 32009KT CAVOK 17/13 Q1017

Prognose für EDGS

vom 17.08. um 05:59 UTC

Zwischen 06:00 UTC und 15:00 UTC

Wind 8 kt aus 320°

Sichtweite 10 km oder mehr

keine signifikanten Wettererscheinungen

keine Wolken


Zwischen 13:00 UTC und 15:00 UTC zeitweise mit einer Wahrscheinlichkeit von 30%

Sichtweite 4000 m

Code: TSRA

aufgebrochene Bewölkung in 1200 ft

TAF EDGS 170559Z 1706/1715 32008KT CAVOK PROB30 TEMPO 1713/1715 4000 TSRA BKN012CB
Impressum